Terminal Aerodrome Forecast
Issued by NWS Miami, FL

Home | Current Version | Previous Version | Text Only | Print | Product List | Glossary On
Versions: 1 2 3 4 5 6 7 8 9 10 11 12 13 14 15 16 17 18 19 20 21 22 23 24 25 26 27 28
000
FTUS42 KMFL 271735
TAFAPF
TAF
KAPF 271735Z 2718/2818 11006KT P6SM VCSH SCT040 BKN250
      TEMPO 2718/2719 VRB10G20KT 4SM SHRA BKN030 BKN250
     FM271900 23009KT P6SM VCTS SCT030CB BKN080 BKN250
     FM280200 07004KT P6SM FEW040=

USA.gov is the U.S. government's official web portal to all federal, state and local government web resources and services.